Terminal Aerodrome Forecast
Issued by NWS Sterling, VA

Home | Current Version | Previous Version | Text Only | Print | Product List | Glossary On
Versions: 1 2 3 4 5 6 7 8 9 10 11 12 13 14
312
FTUS41 KLWX 160539
TAFCHO
TAF
KCHO 160539Z 1606/1706 20004KT P6SM FEW250
     FM161600 21008KT P6SM SCT100
     FM170000 22004KT P6SM SKC=

USA.gov is the U.S. government's official web portal to all federal, state and local government web resources and services.